Time;durP1;ratioP1;P1;durP2;ratioP2;P2;SDS_P1;SDS_P2;PMS_P1;PMS_P2;Temp;Humidity;BMP_temperature;BMP_pressure;BME280_temperature;BME280_humidity;BME280_pressure;Samples;Min_cycle;Max_cycle;Signal;HPM_P1;HPM_P2
2022/06/26 00:01:07;;;;;;;;;;;14.60;99.90;;;;;;5095722;28;19915;-74
2022/06/26 00:03:34;;;;;;;;;;;14.60;99.90;;;;;;5095681;28;19909;-76
2022/06/26 00:06:01;;;;;;;;;;;14.70;99.90;;;;;;5095724;28;20351;-76
2022/06/26 00:08:27;;;;;;;;;;;14.80;99.90;;;;;;5095685;28;19908;-76
2022/06/26 00:10:54;;;;;;;;;;;14.90;99.90;;;;;;5095409;28;20057;-76
2022/06/26 00:13:21;;;;;;;;;;;14.90;99.90;;;;;;5095846;28;19908;-77
2022/06/26 00:15:47;;;;;;;;;;;15.00;99.90;;;;;;5095600;28;20660;-77
2022/06/26 00:18:14;;;;;;;;;;;15.00;99.90;;;;;;5095540;28;19909;-77
2022/06/26 00:20:41;;;;;;;;;;;15.00;99.90;;;;;;5095472;28;20358;-75
2022/06/26 00:23:08;;;;;;;;;;;15.20;99.90;;;;;;5095147;28;19953;-76
2022/06/26 00:25:35;;;;;;;;;;;15.30;99.90;;;;;;5094913;28;19908;-76
2022/06/26 00:28:02;;;;;;;;;;;15.20;99.90;;;;;;5095124;28;20006;-77
2022/06/26 00:30:28;;;;;;;;;;;15.30;99.90;;;;;;5095061;28;19978;-77
2022/06/26 00:32:55;;;;;;;;;;;15.40;99.90;;;;;;5094903;28;19999;-75
2022/06/26 00:35:22;;;;;;;;;;;15.40;99.90;;;;;;5094712;28;19927;-77
2022/06/26 00:37:48;;;;;;;;;;;15.40;99.90;;;;;;5094662;28;19908;-77
2022/06/26 00:40:15;;;;;;;;;;;15.30;99.90;;;;;;5094969;28;19915;-77
2022/06/26 00:42:42;;;;;;;;;;;15.30;99.90;;;;;;5094725;28;19916;-76
2022/06/26 00:45:09;;;;;;;;;;;15.30;99.90;;;;;;5094744;28;20371;-75
2022/06/26 00:47:36;;;;;;;;;;;15.30;99.90;;;;;;5094385;28;19950;-77
2022/06/26 00:50:05;;;;;;;;;;;15.30;99.90;;;;;;5094661;28;19982;-77
2022/06/26 00:52:33;;;;;;;;;;;15.30;99.90;;;;;;5094597;28;19912;-77
2022/06/26 00:55:00;;;;;;;;;;;15.40;99.90;;;;;;5093744;28;19920;-76
2022/06/26 00:57:27;;;;;;;;;;;15.40;99.90;;;;;;5093932;28;19912;-76
2022/06/26 00:59:53;;;;;;;;;;;15.30;99.90;;;;;;5094128;28;19996;-77
2022/06/26 01:02:20;;;;;;;;;;;15.30;99.90;;;;;;5094135;28;19914;-77
2022/06/26 01:04:47;;;;;;;;;;;15.40;99.90;;;;;;5094309;28;19908;-77
2022/06/26 01:07:13;;;;;;;;;;;15.50;99.90;;;;;;5094036;28;19908;-76
2022/06/26 01:09:41;;;;;;;;;;;15.70;99.90;;;;;;5093800;28;20328;-77
2022/06/26 01:12:08;;;;;;;;;;;15.80;99.90;;;;;;5094217;28;19953;-77
2022/06/26 01:14:35;;;;;;;;;;;16.00;99.90;;;;;;5094045;28;20363;-77
2022/06/26 01:17:01;;;;;;;;;;;16.00;99.90;;;;;;5093804;28;19916;-76
2022/06/26 01:19:30;;;;;;;;;;;16.00;99.90;;;;;;5093946;28;19942;-76
2022/06/26 01:21:57;;;;;;;;;;;16.10;99.90;;;;;;5093943;28;19908;-76
2022/06/26 01:24:23;;;;;;;;;;;16.30;99.90;;;;;;5093890;28;19915;-77
2022/06/26 01:26:50;;;;;;;;;;;16.40;99.90;;;;;;5093769;28;19943;-77
2022/06/26 01:29:17;;;;;;;;;;;16.40;99.90;;;;;;5093675;28;19916;-76
2022/06/26 01:31:43;;;;;;;;;;;16.50;99.90;;;;;;5093719;28;19908;-76
2022/06/26 01:34:11;;;;;;;;;;;16.50;99.90;;;;;;5093662;28;20282;-76
2022/06/26 01:36:38;;;;;;;;;;;16.70;99.90;;;;;;5093639;28;20362;-78
2022/06/26 01:39:05;;;;;;;;;;;16.70;99.90;;;;;;5093649;28;19915;-77
2022/06/26 01:41:32;;;;;;;;;;;16.70;99.90;;;;;;5093465;28;19908;-76
2022/06/26 01:43:58;;;;;;;;;;;16.80;99.90;;;;;;5092234;28;19961;-76
2022/06/26 01:46:26;;;;;;;;;;;16.80;99.90;;;;;;5093613;28;19909;-75
2022/06/26 01:48:52;;;;;;;;;;;16.90;99.90;;;;;;5093377;28;19912;-77
2022/06/26 01:51:19;;;;;;;;;;;17.00;99.90;;;;;;5093418;28;20355;-77
2022/06/26 01:53:46;;;;;;;;;;;17.00;99.90;;;;;;5093113;28;19908;-77
2022/06/26 01:56:13;;;;;;;;;;;17.10;99.90;;;;;;5093568;28;19923;-77
2022/06/26 01:58:39;;;;;;;;;;;17.10;99.90;;;;;;5093360;28;19909;-77
2022/06/26 02:01:08;;;;;;;;;;;17.10;99.90;;;;;;5093327;28;19908;-77
2022/06/26 02:03:35;;;;;;;;;;;17.10;99.90;;;;;;5093225;28;20363;-77
2022/06/26 02:06:02;;;;;;;;;;;17.10;99.90;;;;;;5093730;28;20360;-77
2022/06/26 02:08:32;;;;;;;;;;;17.10;99.90;;;;;;5093002;28;19908;-76
2022/06/26 02:13:43;;;;;;;;;;;17.10;99.90;;;;;;5093478;28;19961;-77
2022/06/26 02:16:10;;;;;;;;;;;17.10;99.90;;;;;;5091896;28;19917;-77
2022/06/26 02:18:37;;;;;;;;;;;17.20;99.90;;;;;;5092959;28;19915;-77
2022/06/26 02:21:06;;;;;;;;;;;17.10;99.90;;;;;;5093269;28;19999;-77
2022/06/26 02:23:32;;;;;;;;;;;17.10;99.90;;;;;;5092908;28;19912;-77
2022/06/26 02:25:59;;;;;;;;;;;17.00;99.90;;;;;;5093165;28;19915;-77
2022/06/26 02:28:26;;;;;;;;;;;17.10;99.90;;;;;;5093335;28;19914;-77
2022/06/26 02:30:53;;;;;;;;;;;17.10;99.90;;;;;;5093110;28;19928;-78
2022/06/26 02:33:19;;;;;;;;;;;17.10;99.90;;;;;;5093113;28;19908;-77
2022/06/26 02:35:47;;;;;;;;;;;17.10;99.90;;;;;;5092814;28;19974;-77
2022/06/26 02:38:15;;;;;;;;;;;17.10;99.90;;;;;;5092923;28;19915;-77
2022/06/26 02:40:44;;;;;;;;;;;17.00;99.90;;;;;;5093040;28;19912;-77
2022/06/26 02:43:10;;;;;;;;;;;17.00;99.90;;;;;;5092955;28;19908;-76
2022/06/26 02:45:37;;;;;;;;;;;17.10;99.90;;;;;;5092787;28;20291;-76
2022/06/26 02:48:04;;;;;;;;;;;17.10;99.90;;;;;;5092866;28;19941;-75
2022/06/26 02:50:31;;;;;;;;;;;17.10;99.90;;;;;;5093033;28;20131;-76
2022/06/26 02:52:57;;;;;;;;;;;17.10;99.90;;;;;;5092925;28;19914;-76
2022/06/26 02:55:24;;;;;;;;;;;17.10;99.90;;;;;;5092641;28;19920;-76
2022/06/26 02:57:51;;;;;;;;;;;17.20;99.90;;;;;;5092648;28;19915;-76
2022/06/26 03:00:17;;;;;;;;;;;17.30;99.90;;;;;;5092885;28;19908;-76
2022/06/26 03:02:44;;;;;;;;;;;17.30;99.90;;;;;;5092790;28;19908;-76
2022/06/26 03:05:11;;;;;;;;;;;17.30;99.90;;;;;;5093020;28;19915;-76
2022/06/26 03:07:38;;;;;;;;;;;17.30;99.90;;;;;;5092721;28;19914;-76
2022/06/26 03:10:05;;;;;;;;;;;17.40;99.90;;;;;;5092917;28;20330;-75
2022/06/26 03:12:32;;;;;;;;;;;17.30;99.90;;;;;;5092957;28;19961;-75
2022/06/26 03:14:59;;;;;;;;;;;17.30;99.90;;;;;;5092714;28;20275;-74
2022/06/26 03:17:25;;;;;;;;;;;17.20;99.90;;;;;;5092546;28;19909;-74
2022/06/26 03:19:52;;;;;;;;;;;17.20;99.90;;;;;;5094710;28;19916;-74
2022/06/26 03:22:19;;;;;;;;;;;17.10;99.90;;;;;;5095017;28;20291;-74
2022/06/26 03:24:45;;;;;;;;;;;17.20;99.90;;;;;;5096308;28;19948;-74
2022/06/26 03:27:12;;;;;;;;;;;17.30;99.90;;;;;;5096301;28;19918;-74
2022/06/26 03:29:39;;;;;;;;;;;17.30;99.90;;;;;;5095934;28;20324;-74
2022/06/26 03:32:06;;;;;;;;;;;17.30;99.90;;;;;;5095958;28;19995;-75
2022/06/26 03:34:32;;;;;;;;;;;17.40;99.90;;;;;;5096124;28;19923;-75
2022/06/26 03:36:59;;;;;;;;;;;17.40;99.90;;;;;;5096099;28;19916;-74
2022/06/26 03:39:26;;;;;;;;;;;17.40;99.90;;;;;;5128784;27;20259;-75
2022/06/26 03:42:00;;;;;;;;;;;17.30;99.90;;;;;;5095781;28;19912;-77
2022/06/26 03:44:27;;;;;;;;;;;17.40;99.90;;;;;;5095894;28;19972;-76
2022/06/26 03:46:55;;;;;;;;;;;17.40;99.90;;;;;;5095731;28;19908;-77
2022/06/26 03:49:22;;;;;;;;;;;17.50;99.90;;;;;;5095689;28;19908;-77
2022/06/26 03:51:49;;;;;;;;;;;17.60;99.90;;;;;;5095651;28;19916;-76
2022/06/26 03:54:16;;;;;;;;;;;17.60;99.90;;;;;;5095400;28;20384;-76
2022/06/26 03:56:43;;;;;;;;;;;17.50;99.90;;;;;;5095697;28;20330;-77
2022/06/26 03:59:09;;;;;;;;;;;17.50;99.90;;;;;;5095551;28;19908;-76
2022/06/26 04:01:36;;;;;;;;;;;17.60;99.90;;;;;;5095182;28;20283;-75
2022/06/26 04:04:03;;;;;;;;;;;17.70;99.90;;;;;;5095455;28;19909;-77
2022/06/26 04:06:30;;;;;;;;;;;17.40;99.90;;;;;;5095502;28;19998;-76
2022/06/26 04:08:56;;;;;;;;;;;17.40;99.90;;;;;;5095705;28;19909;-75
2022/06/26 04:11:23;;;;;;;;;;;17.40;99.90;;;;;;5095376;28;19908;-76
2022/06/26 04:13:50;;;;;;;;;;;17.30;99.90;;;;;;5095201;28;19908;-76
2022/06/26 04:16:17;;;;;;;;;;;17.30;99.90;;;;;;5095358;28;19952;-76
2022/06/26 04:18:44;;;;;;;;;;;17.50;99.90;;;;;;5095232;28;20269;-77
2022/06/26 04:21:11;;;;;;;;;;;17.60;99.90;;;;;;5095288;28;19908;-77
2022/06/26 04:23:38;;;;;;;;;;;17.70;99.90;;;;;;5095093;28;19998;-76
2022/06/26 04:26:05;;;;;;;;;;;17.60;99.90;;;;;;5095160;28;19908;-76
2022/06/26 04:28:32;;;;;;;;;;;17.60;99.90;;;;;;5095078;28;20378;-75
2022/06/26 04:30:59;;;;;;;;;;;17.70;99.90;;;;;;5093518;28;19909;-76
2022/06/26 04:33:26;;;;;;;;;;;17.70;99.90;;;;;;5095028;28;19920;-76
2022/06/26 04:35:53;;;;;;;;;;;17.60;99.90;;;;;;5094707;28;19965;-76
2022/06/26 04:38:20;;;;;;;;;;;17.60;99.90;;;;;;5095004;28;19909;-76
2022/06/26 04:40:47;;;;;;;;;;;17.70;99.90;;;;;;5093609;28;19934;-76
2022/06/26 04:43:14;;;;;;;;;;;17.80;99.90;;;;;;5094829;28;19912;-76
2022/06/26 04:45:40;;;;;;;;;;;17.80;99.90;;;;;;5094650;28;20355;-75
2022/06/26 04:48:07;;;;;;;;;;;17.80;99.90;;;;;;5094601;28;19915;-76
2022/06/26 04:50:34;;;;;;;;;;;17.70;99.90;;;;;;5090947;28;19912;-76
2022/06/26 04:53:01;;;;;;;;;;;17.70;99.90;;;;;;5080612;28;19995;-76
2022/06/26 04:55:27;;;;;;;;;;;17.60;99.90;;;;;;5088454;28;20361;-76
2022/06/26 04:57:54;;;;;;;;;;;17.70;99.90;;;;;;5091801;28;19916;-76
2022/06/26 05:00:21;;;;;;;;;;;17.70;99.90;;;;;;5091201;28;19908;-75
2022/06/26 05:02:48;;;;;;;;;;;17.70;99.90;;;;;;5090142;28;19912;-76
2022/06/26 05:05:15;;;;;;;;;;;17.70;99.90;;;;;;5091105;28;19978;-74
2022/06/26 05:07:45;;;;;;;;;;;17.60;99.90;;;;;;5091593;28;19916;-75
2022/06/26 05:10:14;;;;;;;;;;;17.60;99.90;;;;;;5123746;27;19916;-75
2022/06/26 05:12:41;;;;;;;;;;;17.50;99.90;;;;;;5091209;28;19951;-76
2022/06/26 05:15:08;;;;;;;;;;;17.60;99.90;;;;;;5091104;28;20354;-76
2022/06/26 05:17:34;;;;;;;;;;;17.50;99.90;;;;;;5090472;28;19909;-77
2022/06/26 05:20:01;;;;;;;;;;;17.50;99.90;;;;;;5091234;28;19916;-76
2022/06/26 05:22:28;;;;;;;;;;;17.50;99.90;;;;;;5091636;28;19908;-75
2022/06/26 05:24:55;;;;;;;;;;;17.40;99.90;;;;;;5091037;28;19908;-76
2022/06/26 05:27:21;;;;;;;;;;;17.40;99.90;;;;;;5091424;28;19908;-76
2022/06/26 05:29:50;;;;;;;;;;;17.30;99.90;;;;;;5091033;28;20387;-76
2022/06/26 05:32:17;;;;;;;;;;;17.30;99.90;;;;;;5090078;28;19908;-75
2022/06/26 05:34:43;;;;;;;;;;;17.40;99.90;;;;;;5090987;28;19908;-76
2022/06/26 05:37:10;;;;;;;;;;;17.30;99.90;;;;;;5090971;28;19923;-75
2022/06/26 05:39:37;;;;;;;;;;;17.30;99.90;;;;;;5090657;28;19999;-75
2022/06/26 05:42:04;;;;;;;;;;;17.30;99.90;;;;;;5090464;28;20405;-77
2022/06/26 05:44:30;;;;;;;;;;;17.30;99.90;;;;;;5090965;28;20302;-76
2022/06/26 05:47:00;;;;;;;;;;;17.30;99.90;;;;;;5090092;28;20014;-75
2022/06/26 05:49:28;;;;;;;;;;;17.20;99.90;;;;;;5091057;28;19912;-75
2022/06/26 05:51:54;;;;;;;;;;;17.30;99.90;;;;;;5091124;28;20002;-75
2022/06/26 05:54:21;;;;;;;;;;;17.20;99.90;;;;;;5090684;28;19966;-75
2022/06/26 05:56:48;;;;;;;;;;;17.20;99.90;;;;;;5090886;28;19928;-75
2022/06/26 05:59:14;;;;;;;;;;;17.10;99.90;;;;;;5090744;28;19908;-75
2022/06/26 06:01:41;;;;;;;;;;;17.10;99.90;;;;;;5089785;28;19908;-76
2022/06/26 06:04:09;;;;;;;;;;;17.00;99.90;;;;;;5090571;28;20335;-75
2022/06/26 06:06:35;;;;;;;;;;;16.90;99.90;;;;;;5090684;28;19960;-75
2022/06/26 06:09:02;;;;;;;;;;;16.80;99.90;;;;;;5087235;28;20302;-75
2022/06/26 06:11:29;;;;;;;;;;;16.80;99.90;;;;;;5070280;28;20513;-75
2022/06/26 06:13:56;;;;;;;;;;;16.80;99.90;;;;;;5070465;28;19955;-76
2022/06/26 06:16:23;;;;;;;;;;;16.80;99.90;;;;;;5069585;28;19926;-76
2022/06/26 06:18:49;;;;;;;;;;;16.70;99.90;;;;;;5042276;28;20001;-74
2022/06/26 06:21:16;;;;;;;;;;;16.70;99.90;;;;;;5029949;28;19921;-76
2022/06/26 06:23:43;;;;;;;;;;;16.60;99.90;;;;;;5029792;28;19916;-76
2022/06/26 06:26:10;;;;;;;;;;;16.50;99.90;;;;;;5030499;28;19917;-76
2022/06/26 06:28:37;;;;;;;;;;;16.40;99.90;;;;;;5030378;28;20015;-76
2022/06/26 06:31:04;;;;;;;;;;;16.30;99.90;;;;;;5029498;28;19952;-77
2022/06/26 06:33:31;;;;;;;;;;;16.30;99.90;;;;;;5029985;28;19914;-77
2022/06/26 06:35:58;;;;;;;;;;;16.30;99.90;;;;;;5029631;28;19921;-77
2022/06/26 06:38:25;;;;;;;;;;;16.30;99.90;;;;;;5030415;28;19913;-77
2022/06/26 06:40:52;;;;;;;;;;;16.30;99.90;;;;;;5029809;28;19913;-77
2022/06/26 06:43:18;;;;;;;;;;;16.20;99.90;;;;;;5030543;28;20281;-76
2022/06/26 06:45:45;;;;;;;;;;;16.20;99.90;;;;;;5029222;28;19963;-76
2022/06/26 06:48:12;;;;;;;;;;;16.20;99.90;;;;;;5030095;28;19909;-76
2022/06/26 06:50:39;;;;;;;;;;;16.10;99.90;;;;;;5029733;28;20268;-76
2022/06/26 06:53:05;;;;;;;;;;;16.00;99.90;;;;;;5030074;28;19909;-75
2022/06/26 06:55:32;;;;;;;;;;;15.90;99.90;;;;;;5032766;28;20058;-76
2022/06/26 06:57:59;;;;;;;;;;;15.80;99.90;;;;;;5013908;28;19909;-76
2022/06/26 07:00:26;;;;;;;;;;;15.80;99.90;;;;;;5013868;28;19932;-76
2022/06/26 07:02:53;;;;;;;;;;;15.70;99.90;;;;;;5013729;28;20007;-76
2022/06/26 07:05:19;;;;;;;;;;;15.70;99.90;;;;;;5013862;28;19914;-76
2022/06/26 07:07:46;;;;;;;;;;;15.70;99.90;;;;;;5014081;28;20261;-75
2022/06/26 07:10:13;;;;;;;;;;;15.70;99.90;;;;;;5013677;28;19913;-77
2022/06/26 07:12:40;;;;;;;;;;;15.70;99.90;;;;;;5013763;28;20056;-76
2022/06/26 07:15:07;;;;;;;;;;;15.60;99.90;;;;;;5013215;28;19909;-76
2022/06/26 07:17:33;;;;;;;;;;;15.50;99.90;;;;;;5013325;28;19918;-75
2022/06/26 07:20:00;;;;;;;;;;;15.40;99.90;;;;;;5014316;28;20352;-76
2022/06/26 07:22:27;;;;;;;;;;;15.40;99.90;;;;;;5014398;28;19914;-76
2022/06/26 07:24:53;;;;;;;;;;;15.40;99.90;;;;;;5014226;28;19957;-76
2022/06/26 07:27:20;;;;;;;;;;;15.30;99.90;;;;;;5014054;28;19963;-75
2022/06/26 07:29:47;;;;;;;;;;;15.30;99.90;;;;;;5013551;28;19959;-75
2022/06/26 07:32:17;;;;;;;;;;;15.20;99.90;;;;;;5013935;28;20260;-75
2022/06/26 07:34:43;;;;;;;;;;;15.20;99.90;;;;;;5014024;28;20000;-75
2022/06/26 07:37:10;;;;;;;;;;;15.20;99.90;;;;;;5013765;28;19924;-75
2022/06/26 07:39:38;;;;;;;;;;;15.20;99.90;;;;;;5012365;28;19945;-75
2022/06/26 07:42:05;;;;;;;;;;;15.20;99.90;;;;;;5013521;28;19921;-74
2022/06/26 07:44:32;;;;;;;;;;;15.30;99.90;;;;;;5013789;28;19933;-75
2022/06/26 07:46:58;;;;;;;;;;;15.30;99.90;;;;;;5013870;28;19920;-74
2022/06/26 07:49:25;;;;;;;;;;;15.30;99.90;;;;;;5013744;28;20280;-74
2022/06/26 07:51:52;;;;;;;;;;;15.20;99.90;;;;;;5013499;28;19952;-74
2022/06/26 07:54:19;;;;;;;;;;;15.30;99.90;;;;;;5013145;28;20063;-75
2022/06/26 07:56:48;;;;;;;;;;;15.30;99.90;;;;;;5013485;28;19917;-75
2022/06/26 07:59:14;;;;;;;;;;;15.20;99.90;;;;;;5013363;28;20353;-76
2022/06/26 08:01:41;;;;;;;;;;;15.20;99.90;;;;;;5013160;28;19914;-74
2022/06/26 08:04:09;;;;;;;;;;;15.20;99.90;;;;;;5013501;28;19913;-76
2022/06/26 08:06:36;;;;;;;;;;;15.20;99.90;;;;;;5013196;28;19909;-75
2022/06/26 08:09:03;;;;;;;;;;;15.20;99.90;;;;;;5013278;28;19925;-74
2022/06/26 08:11:29;;;;;;;;;;;15.20;99.90;;;;;;5013429;28;19917;-76
2022/06/26 08:13:56;;;;;;;;;;;15.30;99.90;;;;;;5013306;28;19914;-76
2022/06/26 08:16:23;;;;;;;;;;;15.20;99.90;;;;;;5012930;28;19925;-75
2022/06/26 08:18:50;;;;;;;;;;;15.20;99.90;;;;;;5013040;28;19916;-75
2022/06/26 08:24:01;;;;;;;;;;;15.20;99.90;;;;;;5013106;28;20411;-75
2022/06/26 08:26:28;;;;;;;;;;;15.20;99.90;;;;;;5012978;28;19909;-75
2022/06/26 08:28:55;;;;;;;;;;;15.20;99.90;;;;;;5012852;28;20422;-75
2022/06/26 08:31:22;;;;;;;;;;;15.20;99.90;;;;;;5012845;28;19910;-76
2022/06/26 08:33:48;;;;;;;;;;;15.20;99.90;;;;;;5012439;28;20412;-77
2022/06/26 08:36:15;;;;;;;;;;;15.20;99.90;;;;;;5012821;28;19917;-75
2022/06/26 08:38:42;;;;;;;;;;;15.20;99.90;;;;;;5012579;28;20376;-76
2022/06/26 08:41:12;;;;;;;;;;;15.10;99.90;;;;;;5012800;28;19913;-75
2022/06/26 08:43:42;;;;;;;;;;;15.10;99.90;;;;;;5012581;28;19921;-76
2022/06/26 08:46:08;;;;;;;;;;;15.20;99.90;;;;;;5013183;28;20012;-75
2022/06/26 08:48:41;;;;;;;;;;;15.20;99.90;;;;;;5020030;28;20434;-75
2022/06/26 08:51:09;;;;;;;;;;;15.20;99.90;;;;;;5027027;28;20282;-75
2022/06/26 08:53:36;;;;;;;;;;;15.20;99.90;;;;;;5011379;28;20323;-75
2022/06/26 08:56:03;;;;;;;;;;;15.30;99.90;;;;;;5011492;28;20360;-75
2022/06/26 08:58:29;;;;;;;;;;;15.20;99.90;;;;;;5011864;28;19913;-74
2022/06/26 09:00:56;;;;;;;;;;;15.30;99.90;;;;;;5010598;28;20000;-74
2022/06/26 09:03:23;;;;;;;;;;;15.30;99.90;;;;;;5011541;28;19914;-74
2022/06/26 09:05:49;;;;;;;;;;;15.40;99.90;;;;;;5011301;28;19909;-75
2022/06/26 09:08:18;;;;;;;;;;;15.40;99.90;;;;;;5011546;28;19914;-75
2022/06/26 09:10:48;;;;;;;;;;;15.40;99.90;;;;;;5010797;28;20372;-75
2022/06/26 09:13:15;;;;;;;;;;;15.40;99.90;;;;;;5011411;28;19910;-75
2022/06/26 09:15:42;;;;;;;;;;;15.40;99.90;;;;;;5010273;28;19921;-73
2022/06/26 09:18:11;;;;;;;;;;;15.50;99.90;;;;;;5025545;28;19916;-74
2022/06/26 09:20:49;;;;;;;;;;;15.50;99.90;;;;;;5011473;28;19936;-75
2022/06/26 09:23:16;;;;;;;;;;;15.60;99.90;;;;;;5011047;28;19940;-76
2022/06/26 09:25:44;;;;;;;;;;;15.60;99.90;;;;;;5010941;28;20170;-75
2022/06/26 09:28:15;;;;;;;;;;;15.60;99.90;;;;;;5011221;28;20384;-75
2022/06/26 09:30:45;;;;;;;;;;;15.70;99.90;;;;;;5010501;28;19914;-75
2022/06/26 09:33:12;;;;;;;;;;;15.60;99.90;;;;;;4993364;28;20435;-76
2022/06/26 09:35:39;;;;;;;;;;;15.60;99.90;;;;;;5010473;28;19917;-75
2022/06/26 09:38:06;;;;;;;;;;;15.60;99.90;;;;;;5011128;28;19917;-75
2022/06/26 09:40:33;;;;;;;;;;;15.60;99.90;;;;;;5011103;28;19959;-76
2022/06/26 09:42:59;;;;;;;;;;;15.60;99.90;;;;;;5011081;28;19914;-76
2022/06/26 09:45:26;;;;;;;;;;;15.50;99.90;;;;;;5010493;28;19913;-76
2022/06/26 09:47:53;;;;;;;;;;;15.50;99.90;;;;;;5010589;28;19957;-76
2022/06/26 09:50:20;;;;;;;;;;;15.50;99.90;;;;;;5010841;28;19914;-76
2022/06/26 09:52:47;;;;;;;;;;;15.50;99.90;;;;;;5010888;28;20388;-76
2022/06/26 09:55:13;;;;;;;;;;;15.50;99.90;;;;;;5010616;28;20360;-75
2022/06/26 09:57:44;;;;;;;;;;;15.40;99.90;;;;;;5010543;28;19959;-76
2022/06/26 10:00:11;;;;;;;;;;;15.40;99.90;;;;;;5010131;28;19913;-76
2022/06/26 10:08:24;;;;;;;;;;;15.40;99.90;;;;;;4998502;28;19913;-75
2022/06/26 10:10:51;;;;;;;;;;;15.40;99.90;;;;;;5010661;28;19920;-75
2022/06/26 10:13:18;;;;;;;;;;;15.20;99.90;;;;;;5025751;28;19914;-76
2022/06/26 10:16:10;;;;;;;;;;;15.30;99.90;;;;;;5009383;28;20376;-77
2022/06/26 10:18:55;;;;;;;;;;;15.10;99.90;;;;;;5008407;28;19913;-76
2022/06/26 10:21:22;;;;;;;;;;;15.10;99.90;;;;;;5010532;28;19964;-76
2022/06/26 10:23:48;;;;;;;;;;;15.10;99.90;;;;;;5010483;28;20019;-77
2022/06/26 10:26:15;;;;;;;;;;;15.10;99.90;;;;;;5010447;28;20375;-75
2022/06/26 10:29:00;;;;;;;;;;;15.10;99.90;;;;;;5011725;28;20350;-75
2022/06/26 10:31:31;;;;;;;;;;;15.10;99.90;;;;;;5014256;28;19920;-76
2022/06/26 10:34:08;;;;;;;;;;;15.10;99.90;;;;;;5014420;28;19909;-76
2022/06/26 10:36:35;;;;;;;;;;;15.00;99.90;;;;;;5014301;28;20224;-76
2022/06/26 10:39:06;;;;;;;;;;;15.10;99.90;;;;;;4996732;28;20324;-76
2022/06/26 10:44:50;;;;;;;;;;;15.00;99.90;;;;;;5013868;28;20375;-75
2022/06/26 10:47:17;;;;;;;;;;;15.00;99.90;;;;;;4998380;28;19963;-75
2022/06/26 10:49:51;;;;;;;;;;;15.00;99.90;;;;;;5013827;28;20368;-76
2022/06/26 10:52:25;;;;;;;;;;;14.90;99.90;;;;;;5014375;28;19921;-76
2022/06/26 10:54:52;;;;;;;;;;;14.90;99.90;;;;;;5013440;28;19922;-75
2022/06/26 10:57:24;;;;;;;;;;;14.90;99.90;;;;;;5014099;28;19917;-76
2022/06/26 10:59:51;;;;;;;;;;;14.80;99.90;;;;;;5013228;28;20349;-75
2022/06/26 11:02:18;;;;;;;;;;;14.80;99.90;;;;;;5028953;28;19920;-76
2022/06/26 11:04:48;;;;;;;;;;;14.90;99.90;;;;;;5013856;28;20380;-76
2022/06/26 11:07:16;;;;;;;;;;;14.80;99.90;;;;;;5013544;28;19913;-76
2022/06/26 11:09:43;;;;;;;;;;;14.80;99.90;;;;;;5013459;28;20288;-76
2022/06/26 11:12:10;;;;;;;;;;;14.80;99.90;;;;;;5013836;28;19910;-76
2022/06/26 11:14:37;;;;;;;;;;;14.80;99.90;;;;;;5012990;28;20133;-75
2022/06/26 11:17:05;;;;;;;;;;;14.70;99.90;;;;;;5013584;28;19969;-75
2022/06/26 11:20:46;;;;;;;;;;;14.70;99.90;;;;;;5012994;28;19925;-76
2022/06/26 11:22:19;;;;;;;;;;;14.70;99.90;;;;;;5014115;28;20488;-75
2022/06/26 11:24:50;;;;;;;;;;;14.60;99.90;;;;;;5013518;28;19913;-75
2022/06/26 11:27:20;;;;;;;;;;;14.60;99.90;;;;;;5011795;28;19909;-75
2022/06/26 11:29:47;;;;;;;;;;;14.60;99.90;;;;;;4992938;28;19916;-76
2022/06/26 11:32:14;;;;;;;;;;;14.50;99.90;;;;;;4993512;28;19910;-76
2022/06/26 11:34:50;;;;;;;;;;;14.50;99.90;;;;;;4993454;28;20365;-74
2022/06/26 11:37:17;;;;;;;;;;;14.50;99.90;;;;;;4993494;28;19918;-75
2022/06/26 11:39:44;;;;;;;;;;;14.50;99.90;;;;;;4992672;28;19910;-75
2022/06/26 11:42:23;;;;;;;;;;;14.50;99.90;;;;;;4993806;28;20292;-74
2022/06/26 11:44:50;;;;;;;;;;;14.50;99.90;;;;;;4992754;28;19910;-74
2022/06/26 11:47:17;;;;;;;;;;;14.50;99.90;;;;;;4993304;28;19913;-76
2022/06/26 11:49:44;;;;;;;;;;;14.50;99.90;;;;;;4993402;28;20444;-75
2022/06/26 11:52:11;;;;;;;;;;;14.50;99.90;;;;;;4993192;28;20293;-75
2022/06/26 11:54:38;;;;;;;;;;;14.50;99.90;;;;;;5001890;28;20364;-77
2022/06/26 11:57:09;;;;;;;;;;;14.50;99.90;;;;;;5012780;28;19947;-75
2022/06/26 11:59:42;;;;;;;;;;;14.50;99.90;;;;;;5011758;28;19909;-75
2022/06/26 12:02:22;;;;;;;;;;;14.50;99.90;;;;;;5012814;28;19933;-75
2022/06/26 12:04:58;;;;;;;;;;;14.50;99.90;;;;;;5012824;28;19975;-74
2022/06/26 12:07:25;;;;;;;;;;;14.40;99.90;;;;;;5012782;28;20218;-74
2022/06/26 12:09:52;;;;;;;;;;;14.40;99.90;;;;;;5012587;28;19913;-74
2022/06/26 12:12:18;;;;;;;;;;;14.30;99.90;;;;;;5012153;28;19956;-74
2022/06/26 12:14:52;;;;;;;;;;;14.30;99.90;;;;;;5012443;28;19920;-74
2022/06/26 12:17:25;;;;;;;;;;;14.30;99.90;;;;;;5012489;28;19917;-74
2022/06/26 12:19:52;;;;;;;;;;;14.30;99.90;;;;;;5013032;28;19952;-75
2022/06/26 12:22:26;;;;;;;;;;;14.30;99.90;;;;;;5012438;28;19920;-75
2022/06/26 12:24:54;;;;;;;;;;;14.20;99.90;;;;;;5012195;28;19917;-75
2022/06/26 12:27:32;;;;;;;;;;;14.20;99.90;;;;;;5012560;28;19909;-75
2022/06/26 12:29:59;;;;;;;;;;;14.10;99.90;;;;;;5012270;28;20387;-76
2022/06/26 12:32:26;;;;;;;;;;;14.10;99.90;;;;;;5012288;28;20343;-75
2022/06/26 12:34:52;;;;;;;;;;;14.00;99.90;;;;;;5012309;28;19949;-76
2022/06/26 12:37:19;;;;;;;;;;;14.00;99.90;;;;;;5012230;28;20328;-76
2022/06/26 12:39:47;;;;;;;;;;;14.00;99.90;;;;;;5011721;28;19940;-77
2022/06/26 12:42:13;;;;;;;;;;;14.00;99.90;;;;;;5011979;28;19920;-76
2022/06/26 12:44:40;;;;;;;;;;;13.90;99.90;;;;;;5012685;28;20376;-77
2022/06/26 12:47:07;;;;;;;;;;;13.90;99.90;;;;;;5012975;28;19909;-74
2022/06/26 12:49:33;;;;;;;;;;;13.90;99.90;;;;;;5012544;28;19909;-74
2022/06/26 12:52:00;;;;;;;;;;;13.80;99.90;;;;;;5012456;28;19984;-74
2022/06/26 12:54:27;;;;;;;;;;;13.80;99.90;;;;;;5012438;28;20005;-74
2022/06/26 12:56:53;;;;;;;;;;;13.70;99.90;;;;;;5012543;28;19922;-74
2022/06/26 12:59:20;;;;;;;;;;;13.70;99.90;;;;;;5012502;28;19941;-74
2022/06/26 13:01:47;;;;;;;;;;;13.60;99.90;;;;;;5012312;28;19953;-75
2022/06/26 13:04:13;;;;;;;;;;;13.60;99.90;;;;;;5012190;28;20301;-74
2022/06/26 13:06:40;;;;;;;;;;;13.60;99.90;;;;;;5012531;28;19910;-74
2022/06/26 13:09:07;;;;;;;;;;;13.50;99.90;;;;;;5012383;28;19910;-74
2022/06/26 13:11:36;;;;;;;;;;;13.50;99.90;;;;;;5012115;28;19944;-74
2022/06/26 13:14:02;;;;;;;;;;;13.50;99.90;;;;;;5012190;28;19914;-74
2022/06/26 13:16:29;;;;;;;;;;;13.50;99.90;;;;;;5013704;28;19924;-74
2022/06/26 13:18:56;;;;;;;;;;;13.40;99.90;;;;;;5014322;28;20370;-74
2022/06/26 13:21:23;;;;;;;;;;;13.40;99.90;;;;;;5014444;28;19914;-74
2022/06/26 13:23:49;;;;;;;;;;;13.40;99.90;;;;;;5029206;28;19909;-74
2022/06/26 13:26:16;;;;;;;;;;;13.40;99.90;;;;;;5014215;28;19913;-75
2022/06/26 13:28:43;;;;;;;;;;;13.40;99.90;;;;;;5014154;28;20380;-74
2022/06/26 13:31:10;;;;;;;;;;;13.40;99.90;;;;;;5014258;28;19996;-75
2022/06/26 13:33:37;;;;;;;;;;;13.40;99.90;;;;;;5013943;28;20292;-74
2022/06/26 13:36:04;;;;;;;;;;;13.40;99.90;;;;;;5014050;28;19913;-74
2022/06/26 13:38:32;;;;;;;;;;;13.50;99.90;;;;;;5013872;28;19917;-74
2022/06/26 13:41:00;;;;;;;;;;;13.50;99.90;;;;;;5013996;28;19916;-74
2022/06/26 13:43:26;;;;;;;;;;;13.50;99.90;;;;;;5013858;28;19957;-74
2022/06/26 13:45:53;;;;;;;;;;;13.40;99.90;;;;;;5013731;28;19913;-74
2022/06/26 13:48:20;;;;;;;;;;;13.50;99.90;;;;;;5013861;28;19909;-74
2022/06/26 13:50:46;;;;;;;;;;;13.50;99.90;;;;;;5029004;28;19910;-74
2022/06/26 13:53:13;;;;;;;;;;;13.50;99.90;;;;;;5013826;28;19913;-74
2022/06/26 13:55:40;;;;;;;;;;;13.50;99.90;;;;;;5013489;28;19921;-74
2022/06/26 13:58:07;;;;;;;;;;;13.40;99.90;;;;;;5013692;28;19976;-74
2022/06/26 14:00:34;;;;;;;;;;;13.40;99.90;;;;;;5013760;28;19909;-74
2022/06/26 14:03:00;;;;;;;;;;;13.40;99.90;;;;;;5013211;28;19909;-74
2022/06/26 14:05:27;;;;;;;;;;;13.40;99.90;;;;;;5013696;28;19909;-74
2022/06/26 14:07:54;;;;;;;;;;;13.40;99.90;;;;;;5013527;28;19910;-73
2022/06/26 14:10:20;;;;;;;;;;;13.40;99.90;;;;;;5013683;28;19909;-73
2022/06/26 14:12:47;;;;;;;;;;;13.40;99.90;;;;;;5013468;28;19956;-74
2022/06/26 14:15:14;;;;;;;;;;;13.40;99.90;;;;;;5013529;28;19910;-74
2022/06/26 14:17:41;;;;;;;;;;;13.40;99.90;;;;;;5013396;28;20369;-74
2022/06/26 14:20:08;;;;;;;;;;;13.40;99.90;;;;;;5013531;28;19917;-74
2022/06/26 14:28:04;;;;;;;;;;;13.40;99.90;;;;;;5013539;28;19916;-74
2022/06/26 14:30:31;;;;;;;;;;;13.50;99.90;;;;;;5013387;28;19909;-74
2022/06/26 14:32:58;;;;;;;;;;;13.40;99.90;;;;;;5013503;28;20370;-74
2022/06/26 14:35:24;;;;;;;;;;;13.40;99.90;;;;;;5013388;28;19909;-74
2022/06/26 14:37:51;;;;;;;;;;;13.40;99.90;;;;;;5013330;28;19992;-74